Memphis, MO (63555)

1:38 PM CST on December 05, 2016 (GMT -0600)
APRSWXNET | | Change Station

Elev 931 ft 40.52 °N, 92.52 °W | Updated 27 minutes ago

Mostly Cloudy
Mostly Cloudy
38 °F
Feels Like 34 °F
N
5
Wind Variable Wind from SSE
Gusts 0.0 mph

Today
High -- | Low -- °F
--% Chance of Precip.
Yesterday
High -- | Low -- °F
Precip. -- in
Pressure 29.87 in
Visibility 7.0 miles
Clouds Mostly Cloudy 500 ft
Windchill 34 °F
Dew Point 37 °F
Humidity 98%
Rainfall in
Snow Depth Not available.
7:17 AM 4:41 PM
Waxing Crescent, 34% visible
SPECI KIRK 051928Z AUTO 13011KT 7SM BKN005 03/02 A2987 RMK AO2 T00280022
Pressure 29.87 in
Visibility 7.0 miles
Clouds Mostly Cloudy 500 ft
Windchill 34 °F
Dew Point 37 °F
Humidity 98%
Rainfall in
Snow Depth Not available.
7:17 AM 4:41 PM
Waxing Crescent, 34% visible
SPECI KIRK 051928Z AUTO 13011KT 7SM BKN005 03/02 A2987 RMK AO2 T00280022

10-Day Weather Forecast

Almanac

Astronomy

Dec. 05, 2016 Rise Set
Actual Time
Civil Twilight
Nautical Twilight
Astronomical Twilight
Moon
Length of Visible Light
Length of Day
Tomorrow will be .
, % of the Moon is Illuminated

Today's Extremes

State Highs State Lows

Community

WunderPhotos

Upload Photos

1,955,852 photos uploaded!

WunderBlog® & News

Nearby

Air Quality

  Air Quality AQ Index Pollutant
Not available.

Snow Depth

Station Depth Elevation

Earthquake Activity

City Distance Mag. Time & Date
Minimum magnitude displayed is 2.5.

Coastal Water Temperatures

Place Temperature

Stations

Nearby Weather Stations

Station Location Temp. Windchill Dew Point Humidity Wind Precip. Elev Updated Type
                   

Watches & Warnings

There are currently no watches in effect.